Flight Track Log - Related Links

Times and Time Zones

All times are in EDT time to prevent confusion due to time zone crossing. See the AWI3551 flight status page for this flight to view local times or setup timezone preferences in your user account.

Time Position Orientation Groundspeed Altitude Reporting Facility
EDT Latitude Longitude Course Direction KTS MPH feet Rate Location/Type
Tue 05:27:32 AM 42.9500 -78.7167 180° South 166 191 1,400  Level Buffalo TRACON
Tue 05:27:50 AM 42.9667 -78.7000 36° Northeast 159 183 2,100 2,354 Climbing Buffalo TRACON
Tue 05:28:51 AM 42.9833 -78.6333 71° East 216 249 4,500 2,440 Climbing Buffalo TRACON
Tue 05:29:21 AM 42.9911 -78.5878 77° East 231 266 5,800 2,400 Climbing Cleveland Center
Tue 05:30:00 AM 42.6240 -78.6848 172° South  Level FlightAware Approximate
Tue 05:30:21 AM 42.9481 -78.5014 124° Southeast 265 305 8,100  Level Cleveland Center
Tue 05:31:00 AM 42.5213 -78.6647 173° South  Level FlightAware Approximate
Tue 05:31:21 AM 42.8850 -78.4808 167° South 272 313 10,100  Level Cleveland Center
Tue 05:32:00 AM 42.4182 -78.6500 180° South  Level FlightAware Approximate
Tue 05:32:21 AM 42.8000 -78.5006 190° South 279 321 13,100  Level Cleveland Center
Tue 05:33:21 AM 42.7169 -78.5175 189° South 284 327 15,400 2,200 Climbing Cleveland Center
Tue 05:34:21 AM 42.6275 -78.5344 188° South 308 354 17,500 1,800 Climbing Cleveland Center
Tue 05:35:21 AM 42.5342 -78.5544 189° South 328 377 19,000 1,600 Climbing Cleveland Center
Tue 05:36:21 AM 42.4522 -78.5206 163° South 341 392 20,700 1,550 Climbing Cleveland Center
Tue 05:37:21 AM 42.3636 -78.4586 153° Southeast 336 387 22,100 1,400 Climbing Cleveland Center
Tue 05:38:21 AM 42.2728 -78.3972 153° Southeast 346 398 23,500 1,400 Climbing Cleveland Center
Tue 05:39:21 AM 42.1839 -78.3331 152° Southeast 356 410 24,900 750 Climbing Cleveland Center
Tue 05:40:21 AM 42.0867 -78.2664 153° Southeast 379 436 25,000 50 Climbing Cleveland Center
Tue 05:41:21 AM 41.9872 -78.1975 153° Southeast 390 449 25,000  Level Cleveland Center
Tue 05:43:18 AM 41.7750 -78.0556 153° Southeast 404 465 25,000  Level New York Center
Tue 05:44:16 AM 41.6772 -77.9864 152° Southeast 404 465 25,000  Level New York Center
Tue 05:45:18 AM 41.5792 -77.9206 153° Southeast 404 465 25,000  Level New York Center
Tue 05:46:19 AM 41.4850 -77.8578 153° Southeast 397 457 25,000  Level New York Center
Tue 05:47:17 AM 41.3928 -77.7956 153° Southeast 387 445 25,000  Level New York Center
Tue 05:48:18 AM 41.2967 -77.7303 153° Southeast 382 440 25,000  Level New York Center
Tue 05:49:17 AM 41.2044 -77.6683 153° Southeast 382 440 25,000  Level New York Center
Tue 05:50:18 AM 41.1119 -77.6067 153° Southeast 377 434 25,000 -200 Level New York Center
Tue 05:51:17 AM 41.0172 -77.5531 157° South 377 434 24,600 -807 Descending New York Center
Tue 05:52:17 AM 40.9203 -77.5353 172° South 365 420 23,400 -1,190 Descending New York Center
Tue 05:53:18 AM 40.8294 -77.5181 172° South 345 397 22,200 -1,200 Descending New York Center
Tue 05:54:17 AM 40.7408 -77.5011 172° South 334 384 21,000 -1,210 Descending New York Center
Tue 05:55:17 AM 40.6519 -77.4867 173° South 329 379 19,800 -1,140 Descending New York Center
Tue 05:56:18 AM 40.5672 -77.4758 174° South 337 388 18,700 -893 Descending New York Center
Tue 05:57:18 AM 40.4703 -77.4581 172° South 332 382 18,000 -350 Descending New York Center
Tue 05:58:18 AM 40.3897 -77.4450 173° South 325 374 18,000  Level New York Center
Tue 05:59:17 AM 40.2958 -77.4058 162° South 325 374 18,000  Level New York Center
Tue 06:00:17 AM 40.2767 -77.3033 104° East 285 328 18,000  Level New York Center
Tue 06:01:19 AM 40.2606 -77.1767 99° East 309 356 18,000  Level New York Center
Tue 06:02:17 AM 40.2511 -77.0833 98° East 320 368 18,000 -102 Level New York Center
Tue 06:03:17 AM 40.2303 -76.9236 100° East 356 410 17,800 -700 Descending New York Center
Tue 06:04:17 AM 40.2125 -76.7836 99° East 375 432 16,600 -1,190 Descending New York Center
Tue 06:05:18 AM 40.1961 -76.6517 99° East 375 432 15,400 -1,190 Descending New York Center
Tue 06:06:18 AM 40.1817 -76.5228 98° East 358 412 14,200 -1,160 Descending New York Center
Tue 06:07:17 AM 40.1664 -76.4072 100° East 358 412 13,100 -1,190 Descending New York Center
Tue 06:08:19 AM 40.1500 -76.2703 99° East 358 412 11,800 -1,261 Descending New York Center
Tue 06:09:16 AM 40.1308 -76.1436 101° East 353 406 10,600 -1,119 Descending New York Center
Tue 06:10:17 AM 40.1189 -76.0397 99° East 315 362 9,600 -787 Descending New York Center
Tue 06:11:18 AM 40.1044 -75.9436 101° East 284 327 9,000 -645 Descending New York Center
Tue 06:12:18 AM 40.0919 -75.8450 99° East 271 312 8,300 -645 Descending New York Center
Tue 06:13:19 AM 40.0794 -75.7464 99° East 271 312 7,700 -645 Descending New York Center
Tue 06:14:19 AM 40.0911 -75.6658 79° East 265 305 7,000 -718 Descending New York Center
Tue 06:15:16 AM 40.1486 -75.5883 46° Northeast 244 281 6,300 -513 Descending New York Center
Tue 06:16:16 AM 40.1967 -75.5292 43° Northeast 258 297 6,000 -146 Descending New York Center
Tue 06:17:19 AM 40.2519 -75.4542 46° Northeast 268 308 6,000  Level New York Center
Tue 06:18:16 AM 40.2156 -75.3728 120° Southeast 195 224 6,000  Level New York Center
Tue 06:19:18 AM 40.1597 -75.3581 169° South 205 236 6,000  Level New York Center
Tue 06:20:17 AM 40.1150 -75.3878 207° Southwest 199 229 6,000  Level New York Center
Tue 06:21:17 AM 40.0572 -75.4192 203° Southwest 213 245 6,000  Level New York Center
Tue 06:22:50 AM 39.9667 -75.4000 171° South 198 228 6,000  Level Philadelphia TRACON
Tue 06:23:50 AM 39.9333 -75.4167 201° Southwest 217 250 6,000  Level Philadelphia TRACON
Tue 06:24:50 AM 39.9333 -75.5000 270° West 197 227 6,000 -95 Level Philadelphia TRACON
Tue 06:25:56 AM 39.9167 -75.5667 252° West 196 226 5,800 -476 Descending Philadelphia TRACON
Tue 06:26:56 AM 39.9000 -75.6333 252° West 185 213 5,000 -400 Descending Philadelphia TRACON
Tue 06:27:56 AM 39.8667 -75.6833 229° Southwest 188 216 5,000 -50 Level Philadelphia TRACON
Tue 06:28:56 AM 39.8333 -75.7500 237° Southwest 187 215 4,900 -474 Descending Philadelphia TRACON
Tue 06:29:50 AM 39.8000 -75.7500 180° South 163 188 4,100 -474 Descending Philadelphia TRACON
Tue 06:30:50 AM 39.7833 -75.6833 108° East 157 181 4,000 -50 Descending Philadelphia TRACON
Tue 06:31:50 AM 39.7833 -75.6333 90° East 173 199 4,000  Level Philadelphia TRACON
Tue 06:32:50 AM 39.8000 -75.5667 72° East 170 196 4,000 -100 Level Philadelphia TRACON
Tue 06:33:50 AM 39.8167 -75.5167 67° East 167 192 3,800 -550 Descending Philadelphia TRACON
Tue 06:34:50 AM 39.8167 -75.4500 90° East 165 190 2,900 -900 Descending Philadelphia TRACON

Login

Don't have an account? Register now (free) for customized features, flight alerts, and more!